createdAt,value
2022-11-27T00:01:31.194Z,11.93
2022-11-27T00:06:28.313Z,10.07
2022-11-27T00:11:25.876Z,10.17
2022-11-27T00:16:20.986Z,14.03
2022-11-27T00:21:19.119Z,13.07
2022-11-27T00:26:13.484Z,13.03
2022-11-27T00:31:09.607Z,12.67
2022-11-27T00:36:04.340Z,11.53
2022-11-27T00:41:07.057Z,11.30
2022-11-27T00:46:00.548Z,11.00
2022-11-27T00:50:54.049Z,10.37
2022-11-27T00:55:47.889Z,11.50
2022-11-27T01:00:42.801Z,13.23
2022-11-27T01:05:38.317Z,10.87
2022-11-27T01:10:32.116Z,10.10
2022-11-27T01:15:25.474Z,12.77
2022-11-27T01:20:20.448Z,13.37
2022-11-27T01:25:13.729Z,11.40
2022-11-27T01:30:09.156Z,11.73
2022-11-27T01:35:02.460Z,13.70
2022-11-27T01:39:57.124Z,10.37
2022-11-27T01:44:56.833Z,9.33
2022-11-27T01:49:54.846Z,10.27
2022-11-27T01:55:00.809Z,11.70
2022-11-27T01:59:59.043Z,11.47
2022-11-27T02:04:52.538Z,9.60
2022-11-27T02:09:46.117Z,10.53
2022-11-27T02:14:50.486Z,11.40
2022-11-27T02:20:12.032Z,12.10
2022-11-27T02:25:22.811Z,12.10
2022-11-27T02:30:22.034Z,10.33
2022-11-27T02:35:24.569Z,11.50
2022-11-27T02:40:28.523Z,11.07
2022-11-27T02:45:30.308Z,11.33
2022-11-27T02:50:28.744Z,11.43
2022-11-27T02:55:29.493Z,11.20
2022-11-27T03:00:24.635Z,12.37
2022-11-27T03:05:25.417Z,11.40
2022-11-27T03:10:25.270Z,10.70
2022-11-27T03:15:19.055Z,9.90
2022-11-27T03:20:22.733Z,10.43
2022-11-27T03:25:17.325Z,10.80
2022-11-27T03:30:15.007Z,10.47
2022-11-27T03:35:15.819Z,9.87
2022-11-27T03:40:11.926Z,10.67
2022-11-27T03:45:15.871Z,10.63
2022-11-27T03:50:28.336Z,10.40
2022-11-27T03:55:32.999Z,10.23
2022-11-27T04:00:28.802Z,9.77
2022-11-27T04:05:23.958Z,9.30
2022-11-27T04:10:17.448Z,9.50
2022-11-27T04:15:12.555Z,8.63
2022-11-27T04:20:08.075Z,9.17
2022-11-27T04:25:02.814Z,9.07
2022-11-27T04:29:56.241Z,9.30
2022-11-27T04:34:49.576Z,8.47
2022-11-27T04:39:42.962Z,9.03
2022-11-27T04:44:37.957Z,9.13
2022-11-27T04:49:31.651Z,7.80
2022-11-27T04:54:25.221Z,8.90
2022-11-27T04:59:18.601Z,8.90
2022-11-27T05:04:13.576Z,10.30
2022-11-27T05:09:06.946Z,11.57
2022-11-27T05:14:16.940Z,11.57
2022-11-27T05:19:14.163Z,12.03
2022-11-27T05:24:08.350Z,12.33
2022-11-27T05:29:02.060Z,12.80
2022-11-27T05:33:55.919Z,12.77
2022-11-27T05:38:50.678Z,12.97
2022-11-27T05:43:44.112Z,12.90
2022-11-27T05:48:38.391Z,13.47
2022-11-27T05:53:32.287Z,13.10
2022-11-27T05:58:27.175Z,12.93
2022-11-27T06:03:20.847Z,13.60
2022-11-27T06:08:14.232Z,12.50
2022-11-27T06:13:07.942Z,12.47
2022-11-27T06:18:03.751Z,13.43
2022-11-27T06:22:57.765Z,13.07
2022-11-27T06:27:51.568Z,13.20
2022-11-27T06:32:44.852Z,14.00
2022-11-27T06:37:39.605Z,13.60
2022-11-27T06:42:33.050Z,13.57
2022-11-27T06:47:26.538Z,13.80
2022-11-27T06:52:21.759Z,13.10
2022-11-27T06:57:16.537Z,14.00
2022-11-27T07:02:15.671Z,13.80
2022-11-27T07:07:09.048Z,14.30
2022-11-27T07:12:02.466Z,13.97
2022-11-27T07:16:57.277Z,12.93
2022-11-27T07:21:50.766Z,14.23
2022-11-27T07:26:44.208Z,15.23
2022-11-27T07:31:37.603Z,13.50
2022-11-27T07:36:32.591Z,12.67
2022-11-27T07:41:32.177Z,14.27
2022-11-27T07:46:27.384Z,13.83
2022-11-27T07:51:22.835Z,13.03
2022-11-27T07:56:17.818Z,14.00
2022-11-27T08:01:13.948Z,13.23
2022-11-27T08:06:15.738Z,14.43
2022-11-27T08:11:19.380Z,13.77
2022-11-27T08:16:13.092Z,14.47
2022-11-27T08:21:07.036Z,15.70
2022-11-27T08:26:00.332Z,13.53
2022-11-27T08:30:59.741Z,15.10
2022-11-27T08:35:53.291Z,19.50
2022-11-27T08:40:46.907Z,16.47
2022-11-27T08:45:41.184Z,18.50
2022-11-27T08:50:35.913Z,13.47
2022-11-27T08:55:29.287Z,14.50
2022-11-27T09:00:27.953Z,14.00
2022-11-27T09:05:21.702Z,14.70
2022-11-27T09:10:16.435Z,15.10
2022-11-27T09:15:11.061Z,14.90
2022-11-27T09:20:04.793Z,15.10
2022-11-27T09:24:58.184Z,14.63
2022-11-27T09:29:53.037Z,14.50
2022-11-27T09:34:46.376Z,15.87
2022-11-27T09:39:39.670Z,13.80
2022-11-27T09:44:40.922Z,14.33
2022-11-27T09:49:45.130Z,14.67
2022-11-27T09:54:49.448Z,15.37
2022-11-27T09:59:51.641Z,13.57
2022-11-27T10:05:06.251Z,13.67
2022-11-27T10:10:40.064Z,17.20
2022-11-27T10:15:43.636Z,13.73
2022-11-27T10:20:47.323Z,15.60
2022-11-27T10:25:46.709Z,14.50
2022-11-27T10:30:55.375Z,13.50
2022-11-27T10:35:52.160Z,13.23
2022-11-27T10:40:55.391Z,13.33
2022-11-27T10:45:54.515Z,13.77
2022-11-27T10:50:49.809Z,12.03
2022-11-27T11:00:39.315Z,10.63
2022-11-27T11:10:54.693Z,11.00
2022-11-27T11:21:07.111Z,11.03
2022-11-27T11:26:08.783Z,13.77
2022-11-27T11:31:09.142Z,14.97
2022-11-27T11:36:12.444Z,13.87
2022-11-27T11:41:09.654Z,12.53
2022-11-27T11:46:22.634Z,12.10
2022-11-27T11:51:30.806Z,11.43
2022-11-27T11:56:33.350Z,10.17
2022-11-27T12:02:06.087Z,9.87
2022-11-27T12:07:16.257Z,10.63
2022-11-27T12:12:30.650Z,10.23
2022-11-27T12:17:45.740Z,10.20
2022-11-27T12:23:21.051Z,10.20
2022-11-27T12:28:42.685Z,9.47
2022-11-27T12:33:56.526Z,10.50
2022-11-27T12:39:13.527Z,9.50
2022-11-27T12:44:21.346Z,10.20
2022-11-27T12:49:24.197Z,10.43
2022-11-27T12:54:26.743Z,15.90
2022-11-27T12:59:33.255Z,9.20
2022-11-27T13:04:36.981Z,9.77
2022-11-27T13:09:43.806Z,9.67
2022-11-27T13:14:42.804Z,10.07
2022-11-27T13:19:44.765Z,9.20
2022-11-27T13:24:38.694Z,9.20
2022-11-27T13:29:43.284Z,13.23
2022-11-27T13:34:47.795Z,16.03
2022-11-27T13:39:43.712Z,10.50
2022-11-27T13:44:44.341Z,9.27
2022-11-27T13:49:39.128Z,9.27
2022-11-27T13:54:39.885Z,10.17
2022-11-27T13:59:37.984Z,8.90
2022-11-27T14:04:36.491Z,10.13
2022-11-27T14:09:42.814Z,9.93
2022-11-27T14:14:37.411Z,11.53
2022-11-27T14:19:38.448Z,12.37
2022-11-27T14:24:44.188Z,10.70
2022-11-27T14:29:37.898Z,12.10
2022-11-27T14:34:34.996Z,10.70
2022-11-27T14:39:35.224Z,11.90
2022-11-27T14:44:29.272Z,10.83
2022-11-27T14:49:25.932Z,10.53
2022-11-27T14:54:26.824Z,10.67
2022-11-27T14:59:23.354Z,9.70
2022-11-27T15:04:29.158Z,11.60
2022-11-27T15:09:43.298Z,11.30
2022-11-27T15:14:37.421Z,10.07
2022-11-27T15:19:37.962Z,10.53
2022-11-27T15:24:36.308Z,10.93
2022-11-27T15:29:37.845Z,10.87
2022-11-27T15:34:34.689Z,12.27
2022-11-27T15:39:37.394Z,11.53
2022-11-27T15:44:33.683Z,11.03
2022-11-27T15:49:27.368Z,13.00
2022-11-27T15:54:20.904Z,11.90
2022-11-27T15:59:16.764Z,12.57
2022-11-27T16:04:10.252Z,12.33
2022-11-27T16:09:03.826Z,12.40
2022-11-27T16:13:57.846Z,11.17
2022-11-27T16:18:52.611Z,12.03
2022-11-27T16:23:46.279Z,11.43
2022-11-27T16:28:39.682Z,12.07
2022-11-27T16:33:33.926Z,12.13
2022-11-27T16:38:28.661Z,11.73
2022-11-27T16:43:22.261Z,11.80
2022-11-27T16:48:15.623Z,11.83
2022-11-27T16:53:08.975Z,11.53
2022-11-27T16:58:03.743Z,11.70
2022-11-27T17:02:57.118Z,12.53
2022-11-27T17:07:50.546Z,13.67
2022-11-27T17:12:44.001Z,12.67
2022-11-27T17:17:40.350Z,12.60
2022-11-27T17:22:33.751Z,12.33
2022-11-27T17:27:27.121Z,12.97
2022-11-27T17:32:20.465Z,11.67
2022-11-27T17:37:15.291Z,13.00
2022-11-27T17:42:12.942Z,12.40
2022-11-27T17:47:07.938Z,13.53
2022-11-27T17:52:06.123Z,12.73
2022-11-27T17:57:01.450Z,12.40
2022-11-27T18:01:54.888Z,12.00
2022-11-27T18:06:48.264Z,16.87
2022-11-27T18:11:41.600Z,16.77
2022-11-27T18:16:39.362Z,17.10
2022-11-27T18:21:33.088Z,16.10
2022-11-27T18:26:45.329Z,15.43
2022-11-27T18:31:43.613Z,15.23
2022-11-27T18:36:37.059Z,15.07
2022-11-27T18:41:30.661Z,16.50
2022-11-27T18:46:24.125Z,15.17
2022-11-27T18:51:22.289Z,14.23
2022-11-27T18:56:19.654Z,13.90
2022-11-27T19:01:15.968Z,14.73
2022-11-27T19:06:11.853Z,14.67
2022-11-27T19:11:11.135Z,15.43
2022-11-27T19:16:08.124Z,15.20
2022-11-27T19:21:01.890Z,14.17
2022-11-27T19:25:55.763Z,15.00
2022-11-27T19:30:50.618Z,13.97
2022-11-27T19:35:44.481Z,16.73
2022-11-27T19:40:38.946Z,16.07
2022-11-27T19:45:33.834Z,14.27
2022-11-27T19:50:29.056Z,15.53
2022-11-27T19:55:22.936Z,14.87
2022-11-27T20:00:18.155Z,14.40
2022-11-27T20:05:12.117Z,15.07
2022-11-27T20:10:08.609Z,13.50
2022-11-27T20:15:02.359Z,13.93
2022-11-27T20:19:56.138Z,14.53
2022-11-27T20:25:11.615Z,14.17
2022-11-27T20:30:06.743Z,12.77
2022-11-27T20:35:00.885Z,12.90
2022-11-27T20:39:55.119Z,13.07
2022-11-27T20:44:48.982Z,13.10
2022-11-27T20:49:44.328Z,14.20
2022-11-27T20:54:38.050Z,20.87
2022-11-27T20:59:31.754Z,29.27
2022-11-27T21:04:27.619Z,13.97
2022-11-27T21:09:23.012Z,14.50
2022-11-27T21:14:18.216Z,14.37
2022-11-27T21:19:17.419Z,13.80
2022-11-27T21:24:11.450Z,13.27
2022-11-27T21:29:06.270Z,14.27
2022-11-27T21:34:03.969Z,14.17
2022-11-27T21:38:59.518Z,13.97
2022-11-27T21:43:57.406Z,13.23
2022-11-27T21:48:56.186Z,13.20
2022-11-27T21:53:51.962Z,14.13
2022-11-27T21:58:45.419Z,13.30
2022-11-27T22:03:42.582Z,13.20
2022-11-27T22:08:38.203Z,12.70
2022-11-27T22:13:31.582Z,12.73
2022-11-27T22:18:24.879Z,13.03
2022-11-27T22:23:18.228Z,12.57
2022-11-27T22:28:12.988Z,15.67
2022-11-27T22:33:06.442Z,13.20
2022-11-27T22:37:59.749Z,14.10
2022-11-27T22:42:53.056Z,15.90
2022-11-27T22:47:47.733Z,14.63
2022-11-27T22:52:41.085Z,15.00
2022-11-27T22:57:35.412Z,15.70
2022-11-27T23:02:28.828Z,14.03
2022-11-27T23:07:25.282Z,14.93
2022-11-27T23:12:18.881Z,15.43
2022-11-27T23:17:12.251Z,16.10
2022-11-27T23:22:05.639Z,16.13
2022-11-27T23:27:00.389Z,17.40
2022-11-27T23:31:53.741Z,16.47
2022-11-27T23:36:47.136Z,17.20
2022-11-27T23:41:40.906Z,15.73
2022-11-27T23:46:35.617Z,16.43
2022-11-27T23:51:31.268Z,16.80
2022-11-27T23:56:28.488Z,15.37
